Time;durP1;ratioP1;P1;durP2;ratioP2;P2;SDS_P1;SDS_P2;PMS_P1;PMS_P2;Temp;Humidity;BMP_temperature;BMP_pressure;BME280_temperature;BME280_humidity;BME280_pressure;Samples;Min_cycle;Max_cycle;Signal;HPM_P1;HPM_P2
2023/01/06 00:04:16;;;;;;;28.05;17.27;;;;;;;0.45;98.13;99888.13;10453843;28;20048;-82
2023/01/06 00:09:17;;;;;;;33.38;17.15;;;;;;;0.93;97.97;99969.97;10454034;28;20064;-81
2023/01/06 00:14:17;;;;;;;32.72;17.08;;;;;;;1.05;97.58;99987.38;10413003;28;20137;-81
2023/01/06 00:19:18;;;;;;;31.17;19.50;;;;;;;0.84;98.59;99933.13;10412666;28;20050;-81
2023/01/06 00:24:19;;;;;;;27.35;16.67;;;;;;;1.10;98.73;99944.22;10413951;28;20073;-82
2023/01/06 00:29:20;;;;;;;29.55;19.10;;;;;;;1.51;99.18;99978.63;10422413;28;20183;-79
2023/01/06 00:34:21;;;;;;;34.17;18.65;;;;;;;1.33;99.09;99942.44;10462405;28;20041;-81
2023/01/06 00:39:22;;;;;;;29.05;18.55;;;;;;;1.60;99.54;99964.81;10461479;28;20029;-80
2023/01/06 00:44:23;;;;;;;50.03;19.17;;;;;;;1.51;99.80;99950.66;10461755;28;20080;-80
2023/01/06 00:49:25;;;;;;;30.52;17.88;;;;;;;1.55;99.69;99946.00;10462182;28;20043;-80
2023/01/06 00:54:25;;;;;;;248.20;23.40;;;;;;;1.53;99.75;99950.56;10461779;28;20084;-81
2023/01/06 00:59:26;;;;;;;162.50;22.00;;;;;;;1.36;99.61;99926.50;10461265;28;20120;-81
2023/01/06 01:04:28;;;;;;;99.65;20.30;;;;;;;1.14;99.99;99908.19;10461405;28;20055;-80
2023/01/06 01:09:30;;;;;;;174.02;22.98;;;;;;;1.16;100.00;99906.28;10460940;28;20036;-80
2023/01/06 01:14:31;;;;;;;45.90;15.32;;;;;;;1.12;99.95;99913.53;10461302;28;20139;-80
2023/01/06 01:19:33;;;;;;;95.10;15.70;;;;;;;0.39;100.00;99788.44;10460993;28;20132;-80
2023/01/06 01:24:34;;;;;;;76.85;16.08;;;;;;;0.53;100.00;99809.13;10459408;28;20045;-81
2023/01/06 01:29:35;;;;;;;65.13;15.27;;;;;;;0.96;100.00;99875.59;10460378;28;20029;-80
2023/01/06 01:34:36;;;;;;;103.63;17.48;;;;;;;1.07;100.00;99886.06;10460304;28;20440;-80
2023/01/06 01:39:36;;;;;;;120.65;16.38;;;;;;;0.51;100.00;99786.66;10460332;28;20045;-79
2023/01/06 01:44:56;;;;;;;117.25;15.75;;;;;;;0.73;100.00;99809.41;10459054;28;20044;-80
2023/01/06 01:50:06;;;;;;;113.15;15.27;;;;;;;0.77;100.00;99819.47;10460382;28;20047;-81
2023/01/06 01:55:08;;;;;;;104.13;15.02;;;;;;;0.53;100.00;99782.16;10458746;28;20235;-80
2023/01/06 02:00:09;;;;;;;84.03;15.00;;;;;;;1.00;100.00;99872.63;10460017;28;20045;-80
2023/01/06 02:05:13;;;;;;;45.83;12.82;;;;;;;0.81;100.00;99823.53;10458718;28;20066;-80
2023/01/06 02:10:17;;;;;;;48.50;12.90;;;;;;;0.58;100.00;99770.41;10424580;28;20059;-80
2023/01/06 02:15:19;;;;;;;57.75;13.32;;;;;;;0.74;100.00;99785.72;10435159;28;20057;-80
2023/01/06 02:20:48;;;;;;;48.50;13.52;;;;;;;1.24;100.00;99866.44;10458029;28;20071;-80
2023/01/06 02:26:07;;;;;;;50.30;14.45;;;;;;;1.21;100.00;99869.31;10458348;28;20095;-80
2023/01/06 02:31:32;;;;;;;86.45;15.35;;;;;;;1.22;100.00;99863.94;10458298;28;20151;-80
2023/01/06 02:37:05;;;;;;;88.80;15.60;;;;;;;1.07;100.00;99818.88;10457470;28;20408;-79
2023/01/06 02:42:29;;;;;;;77.22;13.77;;;;;;;1.21;100.00;99825.66;10457264;28;20033;-80
2023/01/06 02:47:40;;;;;;;57.10;14.98;;;;;;;0.93;100.00;99789.53;10457466;28;20040;-80
2023/01/06 02:52:52;;;;;;;76.68;13.65;;;;;;;1.01;100.00;99814.13;10456240;28;20052;-80
2023/01/06 02:58:14;;;;;;;143.43;13.98;;;;;;;0.71;100.00;99774.69;10456704;28;20501;-80
2023/01/06 03:03:18;;;;;;;114.38;15.32;;;;;;;0.96;100.00;99854.66;10456984;28;20040;-80
2023/01/06 03:08:25;;;;;;;125.50;14.80;;;;;;;0.91;100.00;99829.72;10456832;28;20078;-80
2023/01/06 03:13:37;;;;;;;98.85;14.77;;;;;;;1.05;100.00;99806.91;10456252;28;20053;-80
2023/01/06 03:18:41;;;;;;;58.78;14.25;;;;;;;1.09;100.00;99800.47;10433221;28;20045;-80
2023/01/06 03:23:42;;;;;;;70.70;14.45;;;;;;;0.98;100.00;99795.25;10441800;28;20045;-80
2023/01/06 03:28:43;;;;;;;40.05;15.00;;;;;;;0.28;100.00;99694.38;10455998;28;20040;-80
2023/01/06 03:34:22;;;;;;;24.13;13.55;;;;;;;0.98;100.00;99806.53;10416662;28;20072;-80
2023/01/06 03:39:35;;;;;;;28.88;14.45;;;;;;;0.95;100.00;99777.16;10412658;28;20505;-81
2023/01/06 03:45:11;;;;;;;41.83;14.50;;;;;;;0.85;100.00;99774.44;10413285;28;20052;-80
2023/01/06 03:50:20;;;;;;;146.13;16.92;;;;;;;0.63;100.00;99762.22;10412944;28;20455;-81
2023/01/06 03:55:28;;;;;;;81.38;15.35;;;;;;;0.45;100.00;99739.16;10431406;28;20037;-79
2023/01/06 04:00:35;;;;;;;282.08;18.90;;;;;;;0.49;100.00;99746.78;10422304;28;20451;-80
2023/01/06 04:05:35;;;;;;;82.68;15.20;;;;;;;0.51;100.00;99763.16;10413403;28;20107;-81
2023/01/06 04:10:36;;;;;;;151.25;17.38;;;;;;;0.65;100.00;99760.31;10413575;28;20120;-81
2023/01/06 04:15:37;;;;;;;30.98;14.35;;;;;;;0.98;100.00;99803.09;10413946;28;20069;-79
2023/01/06 04:20:39;;;;;;;46.67;14.80;;;;;;;0.54;100.00;99727.19;10413424;28;20049;-80
2023/01/06 04:25:40;;;;;;;83.70;17.67;;;;;;;0.89;100.00;99795.00;10412803;28;20493;-79
2023/01/06 04:30:41;;;;;;;113.13;19.33;;;;;;;0.49;100.00;99725.88;10413008;28;20061;-80
2023/01/06 04:35:42;;;;;;;98.40;16.67;;;;;;;0.01;100.00;99660.78;10411093;28;20041;-79
2023/01/06 04:40:43;;;;;;;92.68;15.93;;;;;;;0.43;100.00;99746.28;10412935;28;20037;-80
2023/01/06 04:45:44;;;;;;;29.73;15.25;;;;;;;0.55;100.00;99772.44;10412483;28;20052;-81
2023/01/06 04:50:45;;;;;;;65.55;18.08;;;;;;;0.55;100.00;99764.59;10412052;28;20049;-79
2023/01/06 04:55:45;;;;;;;33.83;16.85;;;;;;;0.64;100.00;99779.56;10412683;28;20046;-82
2023/01/06 05:00:46;;;;;;;25.85;17.10;;;;;;;0.28;100.00;99699.63;10412108;28;20040;-80
2023/01/06 05:05:47;;;;;;;22.98;15.18;;;;;;;0.26;100.00;99685.81;10417369;28;20041;-82
2023/01/06 05:10:48;;;;;;;22.88;15.23;;;;;;;0.76;100.00;99749.84;10429622;28;20420;-81
2023/01/06 05:15:49;;;;;;;20.60;14.05;;;;;;;0.56;100.00;99688.66;10450397;28;20056;-81
2023/01/06 05:20:51;;;;;;;19.67;13.75;;;;;;;1.16;100.00;99769.41;10434704;28;20037;-82
2023/01/06 05:25:52;;;;;;;20.98;13.85;;;;;;;1.26;100.00;99784.28;10418962;28;20041;-81
2023/01/06 05:30:59;;;;;;;25.85;16.05;;;;;;;1.26;100.00;99775.59;10433124;28;20091;-81
2023/01/06 05:36:02;;;;;;;24.52;15.82;;;;;;;1.34;100.00;99779.22;10460502;28;20124;-81
2023/01/06 05:41:03;;;;;;;32.58;15.65;;;;;;;1.22;100.00;99740.16;10460514;28;20060;-84
2023/01/06 05:46:06;;;;;;;23.05;14.30;;;;;;;1.57;100.00;99785.25;10442679;28;20051;-78
2023/01/06 05:51:09;;;;;;;22.58;14.73;;;;;;;1.81;100.00;99811.22;10448325;28;20538;-75
2023/01/06 05:56:13;;;;;;;24.05;15.05;;;;;;;1.70;100.00;99768.53;10421703;28;20047;-78
2023/01/06 06:01:18;;;;;;;27.30;15.07;;;;;;;1.80;100.00;99791.25;10433927;28;20049;-80
2023/01/06 06:06:21;;;;;;;25.48;15.57;;;;;;;1.85;100.00;99824.06;10436062;28;20048;-79
2023/01/06 06:11:22;;;;;;;22.48;15.38;;;;;;;1.75;100.00;99775.06;10432645;28;20041;-80
2023/01/06 06:16:27;;;;;;;21.83;14.45;;;;;;;1.38;100.00;99717.03;10431695;28;20140;-79
2023/01/06 06:21:29;;;;;;;22.10;14.43;;;;;;;1.83;100.00;99798.84;10434083;28;20040;-77
2023/01/06 06:26:31;;;;;;;22.92;14.00;;;;;;;1.52;100.00;99782.16;10443738;28;20167;-78
2023/01/06 06:31:32;;;;;;;28.25;16.02;;;;;;;1.48;100.00;99766.84;10439990;28;20535;-79
2023/01/06 06:36:33;;;;;;;30.08;15.00;;;;;;;1.71;100.00;99784.13;10440405;28;20056;-80
2023/01/06 06:41:34;;;;;;;20.70;14.20;;;;;;;1.73;100.00;99774.34;10438284;28;20812;-80
2023/01/06 06:46:34;;;;;;;24.13;14.82;;;;;;;0.78;100.00;99608.53;10434468;28;20075;-81
2023/01/06 06:51:35;;;;;;;21.40;14.95;;;;;;;1.33;100.00;99669.47;10432785;28;20068;-80
2023/01/06 06:56:36;;;;;;;22.55;14.75;;;;;;;2.23;100.00;99774.56;10439742;28;20504;-79
2023/01/06 07:01:37;;;;;;;28.88;16.48;;;;;;;2.34;100.00;99744.84;10441558;28;20037;-80
2023/01/06 07:06:38;;;;;;;33.38;21.13;;;;;;;1.48;100.00;99613.25;10443539;28;20431;-78
2023/01/06 07:11:39;;;;;;;32.00;17.38;;;;;;;2.41;100.00;99746.00;10446571;28;20446;-79
2023/01/06 07:16:39;;;;;;;28.98;17.30;;;;;;;2.16;99.88;99688.78;10451702;28;20052;-78
2023/01/06 07:21:40;;;;;;;22.40;16.13;;;;;;;2.27;99.58;99678.19;10446376;28;20178;-77
2023/01/06 07:26:41;;;;;;;21.33;14.02;;;;;;;2.86;99.77;99761.34;10452079;28;20037;-77
2023/01/06 07:31:42;;;;;;;22.02;14.55;;;;;;;2.72;99.48;99712.75;10449837;28;20029;-78
2023/01/06 07:36:43;;;;;;;27.65;16.85;;;;;;;3.29;98.67;99769.91;10456648;28;20040;-77
2023/01/06 07:41:45;;;;;;;23.80;14.60;;;;;;;3.28;98.60;99761.19;10436226;28;20501;-76
2023/01/06 07:46:45;;;;;;;24.40;15.77;;;;;;;3.40;98.35;99769.78;10438061;28;20048;-78
2023/01/06 07:51:46;;;;;;;24.42;14.75;;;;;;;3.03;98.43;99675.94;10439893;28;20168;-79
2023/01/06 07:56:47;;;;;;;24.52;15.38;;;;;;;3.50;98.04;99754.03;10439991;28;20040;-78
2023/01/06 08:01:48;;;;;;;23.30;14.57;;;;;;;3.43;97.75;99690.75;10423881;28;20045;-78
2023/01/06 08:06:49;;;;;;;20.63;13.32;;;;;;;3.71;96.62;99706.63;10413558;28;20064;-79
2023/01/06 08:11:49;;;;;;;21.98;14.43;;;;;;;4.02;96.48;99737.03;10448632;28;20136;-80
2023/01/06 08:16:50;;;;;;;20.33;14.43;;;;;;;4.11;95.75;99733.53;10454854;28;20185;-78
2023/01/06 08:21:51;;;;;;;19.30;13.70;;;;;;;3.82;95.39;99652.13;10447876;28;20048;-81
2023/01/06 08:26:52;;;;;;;20.67;13.48;;;;;;;4.31;94.63;99717.75;10454550;28;20555;-81
2023/01/06 08:31:53;;;;;;;19.13;12.57;;;;;;;4.36;94.29;99707.59;10439952;28;20099;-80
2023/01/06 08:36:54;;;;;;;17.88;12.20;;;;;;;3.94;93.66;99634.41;10428997;28;20072;-80
2023/01/06 08:41:54;;;;;;;21.20;12.35;;;;;;;4.20;92.90;99628.53;10415119;28;20095;-80
2023/01/06 08:46:55;;;;;;;18.52;12.32;;;;;;;4.59;92.66;99658.09;10420383;28;20052;-80
2023/01/06 08:51:56;;;;;;;21.70;11.85;;;;;;;4.87;91.06;99647.53;10425320;28;20102;-79
2023/01/06 08:56:57;;;;;;;17.58;11.02;;;;;;;4.97;90.27;99620.19;10456530;28;20051;-80
2023/01/06 09:01:58;;;;;;;14.50;10.30;;;;;;;5.37;88.99;99639.97;10458071;28;20087;-76
2023/01/06 09:06:58;;;;;;;18.38;11.15;;;;;;;5.13;87.12;99568.66;10421628;28;20037;-77
2023/01/06 09:11:59;;;;;;;15.18;11.10;;;;;;;6.07;86.47;99720.91;10432062;28;20037;-78
2023/01/06 09:17:00;;;;;;;15.38;10.32;;;;;;;5.86;86.76;99656.16;10430975;28;20822;-78
2023/01/06 09:22:01;;;;;;;18.25;12.35;;;;;;;5.90;86.35;99651.41;10448314;28;20076;-78
2023/01/06 09:27:02;;;;;;;14.80;10.25;;;;;;;6.26;85.61;99694.34;10458396;28;20050;-79
2023/01/06 09:32:03;;;;;;;14.90;10.43;;;;;;;6.19;85.17;99645.81;10432561;28;20065;-79
2023/01/06 09:37:04;;;;;;;20.92;11.00;;;;;;;6.35;84.66;99638.00;10418521;28;20061;-79
2023/01/06 09:42:23;;;;;;;14.80;9.52;;;;;;;6.60;84.18;99670.59;10418865;28;20041;-79
2023/01/06 09:47:32;;;;;;;12.23;9.40;;;;;;;6.10;82.73;99588.75;10418320;28;20046;-76
2023/01/06 09:52:45;;;;;;;13.68;9.90;;;;;;;6.56;83.90;99660.53;10439284;28;20051;-79
2023/01/06 09:57:51;;;;;;;12.85;9.20;;;;;;;6.45;82.91;99653.69;10427305;28;20041;-80
2023/01/06 10:02:51;;;;;;;16.83;9.93;;;;;;;6.27;82.80;99597.56;10433476;28;20067;-79
2023/01/06 10:08:38;;;;;;;16.13;10.10;;;;;;;6.69;79.99;99652.16;10436251;28;20389;-80
2023/01/06 10:14:01;;;;;;;21.05;15.55;;;;;;;6.70;80.32;99638.81;10420088;28;20053;-80
2023/01/06 10:19:28;;;;;;;13.13;8.68;;;;;;;7.01;81.47;99672.53;10463077;28;20040;-79
2023/01/06 10:24:56;;;;;;;11.38;8.38;;;;;;;6.99;77.71;99658.66;10448838;28;20056;-79
2023/01/06 10:30:00;;;;;;;13.65;8.98;;;;;;;6.96;79.37;99643.16;10450760;28;20039;-82
2023/01/06 10:35:01;;;;;;;13.50;9.85;;;;;;;7.03;79.07;99649.41;10436510;28;20128;-80
2023/01/06 10:40:13;;;;;;;12.90;8.82;;;;;;;6.91;77.47;99646.28;10435407;28;20067;-82
2023/01/06 10:45:15;;;;;;;15.18;8.57;;;;;;;6.46;79.34;99557.75;10434725;28;20045;-82
2023/01/06 10:50:18;;;;;;;12.27;9.05;;;;;;;6.95;78.94;99609.81;10473710;28;20046;-77
2023/01/06 10:55:27;;;;;;;16.15;9.75;;;;;;;7.26;78.11;99655.75;10452472;28;20041;-84
2023/01/06 11:00:28;;;;;;;35.63;17.95;;;;;;;6.77;79.18;99571.19;10430927;28;20038;-80
2023/01/06 11:05:31;;;;;;;16.75;10.25;;;;;;;7.08;78.05;99626.81;10435132;28;20041;-84
2023/01/06 11:10:37;;;;;;;16.73;11.80;;;;;;;6.72;77.40;99573.47;10450338;28;20073;-84
2023/01/06 11:15:40;;;;;;;21.48;14.20;;;;;;;6.14;77.78;99474.06;10449015;28;20060;-84
2023/01/06 11:20:41;;;;;;;20.55;14.07;;;;;;;6.76;78.49;99573.97;10451651;28;20496;-77
2023/01/06 11:25:42;;;;;;;55.83;28.85;;;;;;;5.75;78.97;99437.69;10452623;28;20044;-82
2023/01/06 11:30:50;;;;;;;45.13;22.23;;;;;;;6.79;78.06;99587.69;10454191;28;20131;-87
2023/01/06 11:35:52;;;;;;;31.10;15.77;;;;;;;7.04;78.74;99627.34;10446001;28;20474;-83
2023/01/06 11:40:53;;;;;;;30.02;13.65;;;;;;;6.75;79.21;99604.00;10451913;28;20048;-81
2023/01/06 11:45:56;;;;;;;29.40;13.40;;;;;;;6.98;79.51;99649.94;10447756;28;20048;-76
2023/01/06 11:51:02;;;;;;;31.58;14.23;;;;;;;6.92;79.24;99633.91;10409352;28;20132;-88
2023/01/06 11:56:06;;;;;;;36.63;15.93;;;;;;;6.62;79.74;99600.00;10409725;28;20053;-81
2023/01/06 12:01:16;;;;;;;30.73;15.07;;;;;;;6.78;80.39;99622.16;10405484;28;20041;-81
2023/01/06 12:06:36;;;;;;;26.27;13.07;;;;;;;6.89;80.35;99644.78;10405541;28;20038;-82
2023/01/06 12:11:47;;;;;;;23.38;11.88;;;;;;;6.35;80.81;99576.50;10406056;28;20050;-83
2023/01/06 12:17:42;;;;;;;21.17;10.90;;;;;;;6.88;80.89;99653.69;10420562;28;20068;-81
2023/01/06 12:23:10;;;;;;;22.73;11.75;;;;;;;6.51;81.95;99617.94;10435881;28;20990;-83
2023/01/06 12:28:14;;;;;;;24.27;11.15;;;;;;;6.75;81.67;99673.44;10441977;28;20049;-88
2023/01/06 12:33:17;;;;;;;15.50;9.75;;;;;;;6.76;81.38;99684.81;10432919;28;20042;-80
2023/01/06 12:38:21;;;;;;;16.90;9.70;;;;;;;6.20;82.39;99593.94;10437463;28;20053;-81
2023/01/06 12:43:25;;;;;;;31.58;19.75;;;;;;;6.39;82.75;99659.63;10451494;28;20122;-80
2023/01/06 12:48:32;;;;;;;32.27;16.73;;;;;;;6.16;83.51;99638.22;10452875;28;20107;-80
2023/01/06 12:53:52;;;;;;;16.30;10.63;;;;;;;6.46;84.06;99705.50;10452623;28;20106;-80
2023/01/06 12:59:07;;;;;;;15.27;9.65;;;;;;;5.82;83.65;99610.00;10451601;28;20048;-80
2023/01/06 13:04:19;;;;;;;21.80;12.43;;;;;;;6.23;84.86;99685.91;10453497;28;20554;-80
2023/01/06 13:09:49;;;;;;;29.65;18.73;;;;;;;6.00;85.72;99670.59;10452342;28;20041;-80
2023/01/06 13:15:05;;;;;;;21.65;14.02;;;;;;;6.09;86.55;99726.88;10417643;28;20697;-81
2023/01/06 13:20:12;;;;;;;19.23;11.23;;;;;;;5.64;86.21;99675.91;10449294;28;20051;-81
2023/01/06 13:25:32;;;;;;;21.77;13.85;;;;;;;5.85;88.26;99711.66;10442776;28;20540;-79
2023/01/06 13:30:57;;;;;;;31.55;16.52;;;;;;;5.80;87.93;99717.38;10411361;28;20068;-82
2023/01/06 13:36:29;;;;;;;46.17;14.85;;;;;;;5.73;89.02;99724.25;10412107;28;20038;-81
2023/01/06 13:41:35;;;;;;;30.27;13.40;;;;;;;5.10;88.21;99629.53;10448129;28;20041;-81
2023/01/06 13:46:35;;;;;;;26.17;14.80;;;;;;;5.53;87.61;99714.84;10437388;28;20056;-81
2023/01/06 13:51:39;;;;;;;22.52;14.38;;;;;;;5.32;87.92;99721.22;10418745;28;20037;-81
2023/01/06 13:56:40;;;;;;;21.83;13.40;;;;;;;5.10;88.34;99708.50;10419295;28;20052;-80
2023/01/06 14:01:43;;;;;;;35.17;17.08;;;;;;;4.69;89.13;99658.84;10418108;28;20049;-81
2023/01/06 14:06:45;;;;;;;27.00;16.95;;;;;;;4.83;89.56;99691.75;10418161;28;20041;-80
2023/01/06 14:11:46;;;;;;;27.77;16.83;;;;;;;5.17;89.56;99728.81;10418194;28;20044;-81
2023/01/06 14:16:49;;;;;;;31.90;17.38;;;;;;;5.16;89.64;99757.94;10418154;28;20069;-81
2023/01/06 14:21:53;;;;;;;29.83;16.90;;;;;;;4.85;90.61;99729.28;10416749;28;20054;-81
2023/01/06 14:26:59;;;;;;;27.88;16.88;;;;;;;4.89;90.99;99764.84;10419122;28;20041;-81
2023/01/06 14:32:00;;;;;;;20.13;12.80;;;;;;;4.51;90.56;99714.03;10428070;28;20073;-80
2023/01/06 14:37:02;;;;;;;22.88;11.48;;;;;;;4.60;90.46;99749.19;10458206;28;20072;-80
2023/01/06 14:42:13;;;;;;;17.02;10.13;;;;;;;4.78;91.15;99791.34;10458225;28;20047;-81
2023/01/06 14:47:21;;;;;;;20.23;11.20;;;;;;;4.40;91.33;99743.16;10454689;28;20627;-81
2023/01/06 14:52:31;;;;;;;14.63;9.52;;;;;;;3.89;91.54;99663.75;10448444;28;20500;-81
2023/01/06 14:57:34;;;;;;;20.27;13.40;;;;;;;4.84;90.99;99811.81;10416870;28;20065;-81
2023/01/06 15:02:41;;;;;;;20.25;12.13;;;;;;;4.57;90.57;99752.09;10416211;28;20136;-81
2023/01/06 15:08:17;;;;;;;26.77;14.93;;;;;;;4.99;92.35;99813.00;10433063;28;20460;-82
2023/01/06 15:13:20;;;;;;;23.77;12.70;;;;;;;4.91;90.35;99812.09;10407844;28;20175;-80
2023/01/06 15:18:21;;;;;;;28.50;12.73;;;;;;;4.32;90.54;99738.63;10432208;28;20136;-81
2023/01/06 15:23:22;;;;;;;29.67;13.50;;;;;;;4.45;90.83;99769.84;10425323;28;20453;-79
2023/01/06 15:28:31;;;;;;;28.40;13.02;;;;;;;4.64;91.35;99802.34;10427772;28;20056;-81
2023/01/06 15:33:39;;;;;;;33.67;17.77;;;;;;;4.52;91.45;99784.09;10422435;28;20053;-80
2023/01/06 15:38:40;;;;;;;30.48;16.35;;;;;;;4.62;90.91;99791.13;10435010;28;20080;-84
2023/01/06 15:43:44;;;;;;;18.35;7.95;;;;;;;5.26;91.76;99856.13;10453705;28;20047;-80
2023/01/06 15:48:48;;;;;;;9.57;4.05;;;;;;;5.10;91.22;99771.69;10453492;28;20041;-81
2023/01/06 15:53:56;;;;;;;12.40;3.38;;;;;;;6.00;92.54;99846.44;10453504;28;20037;-79
2023/01/06 15:58:58;;;;;;;3.78;1.52;;;;;;;6.31;91.63;99855.63;10437212;28;20037;-81
2023/01/06 16:04:00;;;;;;;1.35;0.47;;;;;;;6.26;91.11;99796.38;10430452;28;20041;-78
2023/01/06 16:09:21;;;;;;;1.50;0.40;;;;;;;6.67;93.31;99841.50;10438128;28;20045;-81
2023/01/06 16:14:27;;;;;;;1.08;0.40;;;;;;;6.74;92.46;99851.31;10412075;28;20061;-82
2023/01/06 16:19:28;;;;;;;0.82;0.30;;;;;;;6.47;91.32;99809.22;10414280;28;20513;-85
2023/01/06 16:24:30;;;;;;;0.88;0.38;;;;;;;6.66;91.69;99837.22;10412947;28;20052;-81
2023/01/06 16:29:37;;;;;;;0.75;0.40;;;;;;;6.68;91.47;99827.34;10413602;28;20088;-86
2023/01/06 16:34:38;;;;;;;2.05;0.70;;;;;;;6.44;91.86;99785.78;10430670;28;20717;-83
2023/01/06 16:39:38;;;;;;;1.33;0.47;;;;;;;6.69;92.16;99831.63;10432106;28;20391;-78
2023/01/06 16:44:39;;;;;;;0.52;0.20;;;;;;;6.35;91.14;99777.81;10453109;28;20072;-81
2023/01/06 16:49:40;;;;;;;1.42;0.35;;;;;;;6.88;90.73;99839.34;10453480;28;20206;-81
2023/01/06 16:54:41;;;;;;;0.45;0.10;;;;;;;6.78;90.93;99830.69;10453170;28;20414;-78
2023/01/06 16:59:43;;;;;;;0.32;0.10;;;;;;;6.75;90.55;99794.88;10454128;28;20045;-81
2023/01/06 17:04:45;;;;;;;0.75;0.15;;;;;;;6.99;90.86;99817.94;10452219;28;20468;-80
2023/01/06 17:09:49;;;;;;;0.35;0.10;;;;;;;7.07;90.91;99798.66;10451709;28;20412;-85
2023/01/06 17:15:31;;;;;;;;;;;;;;;;;;;;;
2023/01/06 17:20:58;;;;;;;0.32;0.10;;;;;;;7.09;91.58;99763.19;10448788;28;20114;-78
2023/01/06 17:26:08;;;;;;;0.70;0.10;;;;;;;7.18;92.43;99786.97;10418922;28;20543;-79
2023/01/06 17:31:14;;;;;;;0.73;0.20;;;;;;;7.26;92.67;99822.19;10420158;28;20544;-78
2023/01/06 17:36:33;;;;;;;0.98;0.20;;;;;;;7.03;93.64;99773.53;10419989;28;20033;-87
2023/01/06 17:41:33;;;;;;;0.38;0.13;;;;;;;7.27;93.02;99831.78;10421409;28;20135;-88
2023/01/06 17:46:35;;;;;;;0.95;0.30;;;;;;;6.80;93.02;99775.94;10419816;28;20400;-88
2023/01/06 17:51:39;;;;;;;0.35;0.15;;;;;;;7.13;93.49;99842.94;10420689;28;20179;-92
2023/01/06 17:56:39;;;;;;;0.75;0.20;;;;;;;6.36;93.52;99733.78;10421086;28;20041;-90
2023/01/06 18:01:40;;;;;;;0.70;0.20;;;;;;;7.00;94.44;99843.38;10421235;28;20053;-90
2023/01/06 18:06:51;;;;;;;0.85;0.30;;;;;;;6.81;95.21;99825.09;10418680;28;20059;-90
2023/01/06 18:12:01;;;;;;;0.82;0.20;;;;;;;6.71;95.47;99796.19;10419312;28;20079;-88
2023/01/06 18:17:19;;;;;;;0.40;0.20;;;;;;;6.88;95.94;99830.56;10419379;28;20683;-90
2023/01/06 18:22:24;;;;;;;1.25;0.20;;;;;;;6.28;95.23;99729.31;10419390;28;20041;-90
2023/01/06 18:27:33;;;;;;;1.08;0.30;;;;;;;6.67;95.27;99815.97;10418168;28;20144;-89
2023/01/06 18:32:35;;;;;;;1.52;0.40;;;;;;;6.31;95.95;99755.38;10418947;28;20484;-90
2023/01/06 18:37:36;;;;;;;1.08;0.60;;;;;;;6.63;95.55;99811.97;10419054;28;20489;-90
2023/01/06 18:42:48;;;;;;;1.77;0.65;;;;;;;6.55;96.79;99812.75;10419856;28;20037;-89
2023/01/06 18:47:52;;;;;;;0.70;0.38;;;;;;;6.69;96.01;99824.53;10419044;28;20048;-89
2023/01/06 18:52:59;;;;;;;1.48;0.50;;;;;;;6.71;95.08;99813.84;10431406;28;20041;-89
2023/01/06 18:58:18;;;;;;;1.75;0.82;;;;;;;6.74;95.59;99800.31;10458918;28;20045;-87
2023/01/06 19:03:32;;;;;;;1.92;1.02;;;;;;;6.63;94.66;99789.03;10457578;28;20079;-86
2023/01/06 19:08:34;;;;;;;1.50;0.50;;;;;;;6.39;94.84;99731.66;10456690;28;20033;-86
2023/01/06 19:13:35;;;;;;;0.75;0.40;;;;;;;6.40;94.83;99730.69;10458140;28;20064;-85
2023/01/06 19:18:37;;;;;;;1.50;0.68;;;;;;;6.60;94.50;99768.22;10458471;28;20503;-87
2023/01/06 19:23:38;;;;;;;0.77;0.30;;;;;;;5.79;94.32;99647.19;10456751;28;20500;-88
2023/01/06 19:28:39;;;;;;;1.08;0.20;;;;;;;6.11;93.87;99686.19;10457951;28;20040;-87
2023/01/06 19:33:57;;;;;;;1.90;0.70;;;;;;;6.59;94.47;99765.75;10457286;28;20404;-83
2023/01/06 19:39:01;;;;;;;5.20;0.98;;;;;;;6.67;94.10;99779.00;10437073;28;20041;-84
2023/01/06 19:44:05;;;;;;;4.03;1.30;;;;;;;5.89;94.55;99669.03;10414215;28;20128;-84
2023/01/06 19:49:30;;;;;;;1.20;0.47;;;;;;;6.17;95.31;99722.47;10413491;28;20069;-83
2023/01/06 19:54:38;;;;;;;1.25;0.45;;;;;;;6.40;95.38;99780.84;10420492;28;20036;-83
2023/01/06 19:59:39;;;;;;;1.27;0.38;;;;;;;5.97;94.76;99707.81;10471688;28;20439;-86
2023/01/06 20:04:41;;;;;;;0.95;0.30;;;;;;;5.44;95.23;99638.41;10469663;28;20044;-84
2023/01/06 20:09:42;;;;;;;0.55;0.20;;;;;;;6.17;94.72;99759.41;10476830;28;20039;-87
2023/01/06 20:14:43;;;;;;;1.75;0.30;;;;;;;5.94;94.52;99726.59;10472237;28;20061;-86
2023/01/06 20:19:43;;;;;;;0.73;0.30;;;;;;;6.25;94.37;99765.69;10472632;28;20040;-86
2023/01/06 20:24:44;;;;;;;2.25;0.35;;;;;;;5.47;94.34;99653.03;10473188;28;20037;-89
2023/01/06 20:29:45;;;;;;;1.05;0.30;;;;;;;6.11;94.66;99754.72;10474438;28;20039;-88
2023/01/06 20:34:46;;;;;;;0.55;0.20;;;;;;;5.27;94.88;99631.31;10443966;28;20041;-86
2023/01/06 20:39:46;;;;;;;1.92;0.25;;;;;;;5.63;94.45;99703.25;10455155;28;20496;-87
2023/01/06 20:44:47;;;;;;;0.80;0.30;;;;;;;5.99;94.81;99765.69;10454824;28;20484;-85
2023/01/06 20:49:48;;;;;;;0.50;0.13;;;;;;;5.92;94.65;99763.63;10462288;28;20033;-89
2023/01/06 20:54:49;;;;;;;2.05;0.40;;;;;;;5.85;94.87;99754.66;10475187;28;20527;-89
2023/01/06 20:59:50;;;;;;;0.45;0.20;;;;;;;5.51;94.93;99687.84;10456531;28;20040;-83
2023/01/06 21:04:51;;;;;;;0.20;0.15;;;;;;;5.86;94.49;99755.47;10461959;28;20056;-81
2023/01/06 21:09:51;;;;;;;1.75;0.60;;;;;;;5.82;94.92;99752.31;10440682;28;20167;-84
2023/01/06 21:14:52;;;;;;;0.88;0.40;;;;;;;5.26;94.23;99653.34;10421526;28;20053;-85
2023/01/06 21:19:54;;;;;;;1.95;0.50;;;;;;;5.71;94.82;99710.38;10455249;28;20404;-84
2023/01/06 21:24:54;;;;;;;1.38;0.45;;;;;;;5.73;94.18;99724.25;10445384;28;20041;-84
2023/01/06 21:29:55;;;;;;;1.60;0.68;;;;;;;5.37;94.12;99668.13;10461728;28;20055;-85
2023/01/06 21:34:57;;;;;;;1.75;0.77;;;;;;;5.90;94.02;99748.94;10443003;28;20042;-85
2023/01/06 21:39:58;;;;;;;2.13;0.98;;;;;;;5.72;94.52;99712.06;10419222;28;20042;-86
2023/01/06 21:44:59;;;;;;;1.98;0.80;;;;;;;5.81;93.96;99710.31;10419554;28;20404;-85
2023/01/06 21:49:59;;;;;;;2.83;1.17;;;;;;;5.35;93.59;99620.03;10419100;28;20049;-85
2023/01/06 21:55:00;;;;;;;2.58;0.75;;;;;;;6.03;93.84;99740.66;10418578;28;20503;-85
2023/01/06 22:00:03;;;;;;;2.00;0.93;;;;;;;6.15;93.82;99763.16;10417591;28;20042;-85
2023/01/06 22:05:04;;;;;;;1.63;0.90;;;;;;;6.05;93.63;99734.25;10418468;28;20041;-84
2023/01/06 22:10:07;;;;;;;6.43;0.95;;;;;;;6.18;93.34;99757.56;10417927;28;20045;-83
2023/01/06 22:15:09;;;;;;;2.95;1.05;;;;;;;6.15;93.28;99750.81;10417940;28;20081;-85
2023/01/06 22:20:11;;;;;;;2.92;0.90;;;;;;;6.22;93.38;99756.28;10415669;28;20107;-86
2023/01/06 22:25:12;;;;;;;3.38;1.50;;;;;;;5.44;92.84;99627.88;10416356;28;20417;-85
2023/01/06 22:30:13;;;;;;;2.03;1.00;;;;;;;5.51;92.95;99645.69;10417413;28;20045;-85
2023/01/06 22:35:15;;;;;;;3.38;1.52;;;;;;;6.15;93.21;99748.16;10417209;28;20045;-85
2023/01/06 22:40:16;;;;;;;3.22;1.38;;;;;;;5.86;93.89;99714.16;10416909;28;20037;-85
2023/01/06 22:45:17;;;;;;;2.65;1.13;;;;;;;6.04;93.93;99737.88;10416704;28;20551;-85
2023/01/06 22:50:18;;;;;;;2.10;1.10;;;;;;;6.00;94.46;99733.06;10415772;28;20045;-85
2023/01/06 22:55:19;;;;;;;2.80;1.20;;;;;;;5.49;93.88;99661.63;10415065;28;20056;-84
2023/01/06 23:00:19;;;;;;;2.10;0.98;;;;;;;5.71;94.16;99702.47;10416515;28;20037;-85
2023/01/06 23:05:20;;;;;;;2.80;1.30;;;;;;;6.16;94.78;99772.72;10414618;28;20413;-84
2023/01/06 23:10:21;;;;;;;3.50;1.50;;;;;;;6.18;93.90;99789.22;10414436;28;20452;-85
2023/01/06 23:15:22;;;;;;;3.92;1.83;;;;;;;5.38;94.11;99654.78;10416802;28;20049;-83
2023/01/06 23:20:22;;;;;;;3.47;1.85;;;;;;;5.75;94.83;99711.75;10457466;28;20444;-85
2023/01/06 23:25:23;;;;;;;3.70;1.95;;;;;;;6.16;94.05;99767.44;10456286;28;20072;-83
2023/01/06 23:30:24;;;;;;;3.92;1.88;;;;;;;5.64;94.89;99681.19;10455553;28;20583;-84
2023/01/06 23:35:25;;;;;;;3.80;1.90;;;;;;;6.17;94.76;99777.03;10456494;28;20040;-83